createdAt,value
2022-11-27T00:01:36.531Z,101878.94
2022-11-27T00:04:03.240Z,101873.03
2022-11-27T00:06:31.056Z,101870.00
2022-11-27T00:09:00.142Z,101870.06
2022-11-27T00:11:33.238Z,101865.09
2022-11-27T00:14:00.501Z,101856.66
2022-11-27T00:16:32.202Z,101849.72
2022-11-27T00:18:59.063Z,101840.78
2022-11-27T00:21:28.548Z,101837.63
2022-11-27T00:23:57.139Z,101842.25
2022-11-27T00:26:24.548Z,101825.53
2022-11-27T00:28:53.798Z,101829.47
2022-11-27T00:31:28.465Z,101820.81
2022-11-27T00:33:56.500Z,101818.19
2022-11-27T00:36:23.361Z,101807.84
2022-11-27T00:38:50.423Z,101804.56
2022-11-27T00:41:20.938Z,101798.25
2022-11-27T00:43:48.025Z,101795.81
2022-11-27T00:46:28.123Z,101786.22
2022-11-27T00:48:55.897Z,101786.22
2022-11-27T00:51:28.916Z,101783.53
2022-11-27T00:53:55.974Z,101787.19
2022-11-27T00:56:25.230Z,101786.69
2022-11-27T00:58:52.866Z,101783.84
2022-11-27T01:01:31.509Z,101779.41
2022-11-27T01:03:59.745Z,101778.94
2022-11-27T01:06:27.414Z,101789.75
2022-11-27T01:08:53.826Z,101786.88
2022-11-27T01:11:25.597Z,101785.91
2022-11-27T01:13:52.548Z,101789.06
2022-11-27T01:16:22.156Z,101780.75
2022-11-27T01:18:57.608Z,101778.22
2022-11-27T01:21:26.393Z,101779.00
2022-11-27T01:23:53.971Z,101772.47
2022-11-27T01:26:21.027Z,101777.72
2022-11-27T01:28:47.893Z,101767.25
2022-11-27T01:31:18.023Z,101770.13
2022-11-27T01:33:45.843Z,101769.25
2022-11-27T01:36:14.658Z,101770.56
2022-11-27T01:38:41.521Z,101765.31
2022-11-27T01:41:24.203Z,101761.66
2022-11-27T01:43:52.406Z,101764.63
2022-11-27T01:46:34.178Z,101754.06
2022-11-27T01:49:11.283Z,101756.84
2022-11-27T01:51:47.124Z,101761.44
2022-11-27T01:54:16.904Z,101758.16
2022-11-27T01:56:46.318Z,101757.03
2022-11-27T01:59:13.291Z,101757.97
2022-11-27T02:01:39.830Z,101752.59
2022-11-27T02:04:06.228Z,101756.94
2022-11-27T02:06:32.739Z,101757.28
2022-11-27T02:08:59.121Z,101764.34
2022-11-27T02:11:44.308Z,101757.34
2022-11-27T02:14:30.965Z,101763.66
2022-11-27T02:17:18.148Z,101755.97
2022-11-27T02:20:12.349Z,101753.59
2022-11-27T02:23:09.879Z,101750.69
2022-11-27T02:26:01.816Z,101748.19
2022-11-27T02:28:58.501Z,101745.97
2022-11-27T02:31:57.799Z,101734.72
2022-11-27T02:34:30.133Z,101741.03
2022-11-27T02:37:13.469Z,101743.16
2022-11-27T02:39:49.149Z,101750.59
2022-11-27T02:42:23.011Z,101743.47
2022-11-27T02:45:01.891Z,101751.78
2022-11-27T02:47:31.799Z,101772.03
2022-11-27T02:49:59.958Z,101772.03
2022-11-27T02:52:28.500Z,101767.44
2022-11-27T02:54:58.551Z,101767.34
2022-11-27T02:57:27.384Z,101767.97
2022-11-27T02:59:57.386Z,101755.59
2022-11-27T03:02:32.824Z,101748.78
2022-11-27T03:05:02.935Z,101748.09
2022-11-27T03:07:47.111Z,101742.91
2022-11-27T03:10:21.753Z,101738.47
2022-11-27T03:12:49.276Z,101741.41
2022-11-27T03:15:16.350Z,101736.25
2022-11-27T03:17:54.998Z,101730.78
2022-11-27T03:20:32.766Z,101730.25
2022-11-27T03:22:59.238Z,101734.75
2022-11-27T03:25:28.895Z,101734.69
2022-11-27T03:28:05.974Z,101731.31
2022-11-27T03:30:32.490Z,101723.59
2022-11-27T03:32:59.147Z,101724.47
2022-11-27T03:35:27.055Z,101723.72
2022-11-27T03:37:54.659Z,101715.16
2022-11-27T03:40:27.278Z,101713.25
2022-11-27T03:43:04.790Z,101714.38
2022-11-27T03:45:52.225Z,101716.78
2022-11-27T03:48:47.966Z,101716.03
2022-11-27T03:51:17.381Z,101710.66
2022-11-27T03:53:57.566Z,101714.63
2022-11-27T03:56:32.850Z,101719.13
2022-11-27T03:59:04.487Z,101720.94
2022-11-27T04:01:33.243Z,101722.84
2022-11-27T04:03:59.915Z,101706.06
2022-11-27T04:06:26.363Z,101713.44
2022-11-27T04:08:52.859Z,101709.53
2022-11-27T04:11:19.419Z,101699.59
2022-11-27T04:13:45.748Z,101697.28
2022-11-27T04:16:12.268Z,101692.69
2022-11-27T04:18:41.168Z,101695.34
2022-11-27T04:21:07.524Z,101697.84
2022-11-27T04:23:37.968Z,101694.41
2022-11-27T04:26:05.220Z,101694.22
2022-11-27T04:28:31.659Z,101696.91
2022-11-27T04:31:03.428Z,101699.75
2022-11-27T04:33:32.851Z,101692.81
2022-11-27T04:35:59.188Z,101695.91
2022-11-27T04:38:25.608Z,101692.13
2022-11-27T04:40:53.500Z,101684.41
2022-11-27T04:43:20.123Z,101673.50
2022-11-27T04:45:46.816Z,101687.13
2022-11-27T04:48:18.530Z,101684.00
2022-11-27T04:50:49.779Z,101681.09
2022-11-27T04:53:16.127Z,101681.91
2022-11-27T04:55:42.615Z,101679.88
2022-11-27T04:58:09.056Z,101673.66
2022-11-27T05:00:38.021Z,101669.03
2022-11-27T05:03:04.596Z,101665.31
2022-11-27T05:05:33.830Z,101664.53
2022-11-27T05:08:00.346Z,101677.50
2022-11-27T05:10:26.932Z,101668.69
2022-11-27T05:12:53.465Z,101671.09
2022-11-27T05:15:19.880Z,101664.75
2022-11-27T05:17:46.461Z,101670.91
2022-11-27T05:20:12.935Z,101667.53
2022-11-27T05:22:39.401Z,101660.25
2022-11-27T05:25:06.391Z,101658.34
2022-11-27T05:27:32.866Z,101653.63
2022-11-27T05:29:59.241Z,101658.63
2022-11-27T05:32:27.873Z,101659.56
2022-11-27T05:35:01.729Z,101662.44
2022-11-27T05:37:28.206Z,101652.56
2022-11-27T05:39:54.603Z,101653.63
2022-11-27T05:42:21.050Z,101658.03
2022-11-27T05:44:49.527Z,101666.00
2022-11-27T05:47:20.274Z,101667.06
2022-11-27T05:49:46.807Z,101666.94
2022-11-27T05:52:13.169Z,101656.41
2022-11-27T05:54:40.693Z,101659.97
2022-11-27T05:57:07.313Z,101664.38
2022-11-27T05:59:33.696Z,101663.31
2022-11-27T06:02:00.119Z,101655.19
2022-11-27T06:04:26.528Z,101652.66
2022-11-27T06:06:52.974Z,101640.22
2022-11-27T06:09:19.325Z,101635.72
2022-11-27T06:11:45.750Z,101633.69
2022-11-27T06:14:12.112Z,101637.34
2022-11-27T06:16:38.614Z,101634.72
2022-11-27T06:19:05.165Z,101639.06
2022-11-27T06:21:31.570Z,101644.31
2022-11-27T06:23:57.955Z,101647.97
2022-11-27T06:26:34.961Z,101643.56
2022-11-27T06:29:02.142Z,101632.84
2022-11-27T06:31:31.196Z,101628.22
2022-11-27T06:33:58.721Z,101626.41
2022-11-27T06:36:29.087Z,101623.72
2022-11-27T06:38:58.059Z,101621.78
2022-11-27T06:41:26.686Z,101621.88
2022-11-27T06:43:53.733Z,101617.19
2022-11-27T06:46:22.075Z,101608.19
2022-11-27T06:48:50.157Z,101607.19
2022-11-27T06:51:21.245Z,101606.03
2022-11-27T06:53:47.621Z,101604.44
2022-11-27T06:56:16.878Z,101605.75
2022-11-27T06:58:43.631Z,101603.19
2022-11-27T07:01:15.888Z,101597.03
2022-11-27T07:03:45.186Z,101600.59
2022-11-27T07:06:16.291Z,101597.81
2022-11-27T07:08:43.239Z,101601.25
2022-11-27T07:11:18.649Z,101596.84
2022-11-27T07:13:49.864Z,101593.28
2022-11-27T07:16:17.489Z,101591.25
2022-11-27T07:18:53.034Z,101598.38
2022-11-27T07:21:20.610Z,101598.00
2022-11-27T07:23:47.729Z,101597.88
2022-11-27T07:26:18.812Z,101583.28
2022-11-27T07:28:46.192Z,101572.34
2022-11-27T07:31:14.977Z,101570.13
2022-11-27T07:33:41.498Z,101576.25
2022-11-27T07:36:16.641Z,101566.81
2022-11-27T07:38:43.629Z,101563.72
2022-11-27T07:41:13.113Z,101560.53
2022-11-27T07:43:40.062Z,101560.78
2022-11-27T07:46:18.408Z,101560.28
2022-11-27T07:48:45.226Z,101567.91
2022-11-27T07:51:15.031Z,101570.94
2022-11-27T07:53:44.067Z,101576.03
2022-11-27T07:56:12.489Z,101590.03
2022-11-27T07:58:38.937Z,101599.59
2022-11-27T08:01:14.459Z,101604.13
2022-11-27T08:03:44.089Z,101591.22
2022-11-27T08:06:18.815Z,101582.53
2022-11-27T08:08:47.738Z,101572.19
2022-11-27T08:11:23.963Z,101564.69
2022-11-27T08:13:53.248Z,101557.69
2022-11-27T08:16:19.631Z,101550.69
2022-11-27T08:18:48.809Z,101552.84
2022-11-27T08:21:15.253Z,101547.47
2022-11-27T08:23:41.670Z,101544.88
2022-11-27T08:26:12.295Z,101530.75
2022-11-27T08:28:42.203Z,101520.75
2022-11-27T08:31:10.973Z,101502.41
2022-11-27T08:33:37.643Z,101489.47
2022-11-27T08:36:04.626Z,101492.03
2022-11-27T08:38:31.124Z,101489.47
2022-11-27T08:41:03.123Z,101505.78
2022-11-27T08:43:30.393Z,101512.03
2022-11-27T08:45:57.647Z,101520.31
2022-11-27T08:48:24.963Z,101513.31
2022-11-27T08:50:52.436Z,101497.47
2022-11-27T08:53:18.824Z,101492.84
2022-11-27T08:55:45.417Z,101491.53
2022-11-27T08:58:11.993Z,101486.56
2022-11-27T09:00:41.513Z,101481.31
2022-11-27T09:03:08.110Z,101498.91
2022-11-27T09:05:34.535Z,101504.25
2022-11-27T09:08:02.455Z,101497.44
2022-11-27T09:10:29.050Z,101491.03
2022-11-27T09:12:56.509Z,101495.84
2022-11-27T09:15:23.150Z,101502.16
2022-11-27T09:17:52.384Z,101506.84
2022-11-27T09:20:18.710Z,101500.75
2022-11-27T09:22:45.046Z,101485.59
2022-11-27T09:25:11.471Z,101481.69
2022-11-27T09:27:38.311Z,101476.94
2022-11-27T09:30:07.876Z,101480.97
2022-11-27T09:32:34.832Z,101478.53
2022-11-27T09:35:01.293Z,101477.69
2022-11-27T09:37:32.557Z,101476.38
2022-11-27T09:39:59.213Z,101489.13
2022-11-27T09:42:40.465Z,101484.25
2022-11-27T09:45:13.571Z,101477.13
2022-11-27T09:47:49.294Z,101479.34
2022-11-27T09:50:32.023Z,101473.09
2022-11-27T09:53:05.629Z,101474.53
2022-11-27T09:55:37.927Z,101482.28
2022-11-27T09:58:19.165Z,101472.25
2022-11-27T10:00:47.000Z,101469.69
2022-11-27T10:03:15.737Z,101455.88
2022-11-27T10:06:05.988Z,101454.31
2022-11-27T10:08:40.769Z,101444.91
2022-11-27T10:11:44.111Z,101445.31
2022-11-27T10:14:28.495Z,101442.59
2022-11-27T10:17:20.706Z,101440.25
2022-11-27T10:19:53.213Z,101439.91
2022-11-27T10:22:40.107Z,101442.41
2022-11-27T10:25:15.332Z,101423.94
2022-11-27T10:27:57.962Z,101402.56
2022-11-27T10:30:25.771Z,101395.59
2022-11-27T10:32:56.462Z,101396.97
2022-11-27T10:35:30.422Z,101391.13
2022-11-27T10:38:14.784Z,101388.72
2022-11-27T10:40:53.345Z,101378.75
2022-11-27T10:43:25.175Z,101383.88
2022-11-27T10:45:59.453Z,101358.41
2022-11-27T10:48:27.745Z,101361.09
2022-11-27T10:51:00.264Z,101346.81
2022-11-27T10:53:34.542Z,101347.69
2022-11-27T10:56:16.108Z,101338.00
2022-11-27T10:58:54.281Z,101322.88
2022-11-27T11:01:24.892Z,101332.88
2022-11-27T11:04:18.439Z,101321.31
2022-11-27T11:06:50.811Z,101323.72
2022-11-27T11:09:43.940Z,101320.91
2022-11-27T11:12:21.066Z,101318.34
2022-11-27T11:15:00.540Z,101309.06
2022-11-27T11:17:34.165Z,101309.34
2022-11-27T11:20:01.091Z,101312.63
2022-11-27T11:22:33.103Z,101304.06
2022-11-27T11:24:59.586Z,101302.88
2022-11-27T11:27:30.505Z,101307.03
2022-11-27T11:30:05.665Z,101300.28
2022-11-27T11:32:37.412Z,101300.41
2022-11-27T11:35:24.361Z,101295.72
2022-11-27T11:37:52.494Z,101282.25
2022-11-27T11:40:21.758Z,101283.41
2022-11-27T11:42:58.801Z,101277.41
2022-11-27T11:45:31.232Z,101275.00
2022-11-27T11:48:25.753Z,101272.72
2022-11-27T11:51:04.279Z,101272.69
2022-11-27T11:53:39.795Z,101264.53
2022-11-27T11:56:31.977Z,101266.94
2022-11-27T11:59:13.003Z,101260.78
2022-11-27T12:02:00.987Z,101265.31
2022-11-27T12:04:46.781Z,101263.28
2022-11-27T12:07:37.688Z,101261.88
2022-11-27T12:10:48.979Z,101257.75
2022-11-27T12:13:49.420Z,101270.94
2022-11-27T12:16:22.115Z,101241.34
2022-11-27T12:19:08.216Z,101246.09
2022-11-27T12:21:54.727Z,101247.69
2022-11-27T12:24:39.466Z,101242.25
2022-11-27T12:27:27.203Z,101230.97
2022-11-27T12:30:14.436Z,101224.69
2022-11-27T12:33:09.315Z,101211.44
2022-11-27T12:35:43.194Z,101207.41
2022-11-27T12:38:21.472Z,101199.09
2022-11-27T12:41:12.566Z,101192.59
2022-11-27T12:43:47.845Z,101188.81
2022-11-27T12:46:43.209Z,101176.97
2022-11-27T12:49:20.489Z,101186.78
2022-11-27T12:51:56.527Z,101189.56
2022-11-27T12:54:40.862Z,101188.06
2022-11-27T12:57:15.016Z,101191.00
2022-11-27T12:59:47.567Z,101199.34
2022-11-27T13:02:38.101Z,101178.78
2022-11-27T13:05:13.486Z,101191.06
2022-11-27T13:07:57.956Z,101181.44
2022-11-27T13:10:32.008Z,101177.41
2022-11-27T13:13:16.308Z,101175.56
2022-11-27T13:15:48.720Z,101180.41
2022-11-27T13:18:26.342Z,101187.69
2022-11-27T13:20:53.260Z,101186.06
2022-11-27T13:23:21.135Z,101169.91
2022-11-27T13:25:55.562Z,101170.94
2022-11-27T13:28:54.454Z,101174.09
2022-11-27T13:31:25.639Z,101164.25
2022-11-27T13:34:02.971Z,101160.97
2022-11-27T13:36:37.250Z,101174.56
2022-11-27T13:39:06.926Z,101164.69
2022-11-27T13:41:40.926Z,101161.28
2022-11-27T13:44:25.479Z,101156.06
2022-11-27T13:46:57.188Z,101155.00
2022-11-27T13:49:43.363Z,101149.72
2022-11-27T13:52:19.512Z,101139.53
2022-11-27T13:55:22.265Z,101145.25
2022-11-27T13:57:53.693Z,101142.91
2022-11-27T14:00:32.381Z,101131.81
2022-11-27T14:02:58.818Z,101129.75
2022-11-27T14:05:41.515Z,101116.38
2022-11-27T14:08:33.407Z,101122.38
2022-11-27T14:10:59.877Z,101119.69
2022-11-27T14:13:40.382Z,101115.56
2022-11-27T14:16:30.657Z,101097.31
2022-11-27T14:19:05.437Z,101084.19
2022-11-27T14:21:41.809Z,101076.97
2022-11-27T14:24:26.630Z,101069.28
2022-11-27T14:26:54.091Z,101057.56
2022-11-27T14:29:22.379Z,101038.34
2022-11-27T14:32:03.049Z,101044.91
2022-11-27T14:34:33.841Z,101046.06
2022-11-27T14:37:03.832Z,101037.38
2022-11-27T14:39:37.940Z,101037.38
2022-11-27T14:42:23.061Z,101019.38
2022-11-27T14:45:21.690Z,101024.13
2022-11-27T14:47:53.370Z,101025.25
2022-11-27T14:50:24.003Z,101021.72
2022-11-27T14:52:56.113Z,101018.28
2022-11-27T14:55:23.299Z,101020.56
2022-11-27T14:57:53.367Z,101017.16
2022-11-27T15:00:25.203Z,101023.84
2022-11-27T15:02:52.043Z,101020.47
2022-11-27T15:05:28.935Z,101018.00
2022-11-27T15:07:58.501Z,101016.59
2022-11-27T15:10:32.419Z,101019.47
2022-11-27T15:13:01.286Z,101018.91
2022-11-27T15:15:30.062Z,101021.63
2022-11-27T15:18:01.943Z,101014.47
2022-11-27T15:20:34.068Z,101010.06
2022-11-27T15:23:03.316Z,101000.50
2022-11-27T15:25:39.526Z,101013.50
2022-11-27T15:28:39.835Z,101011.94
2022-11-27T15:31:23.211Z,101006.81
2022-11-27T15:34:02.817Z,101005.09
2022-11-27T15:36:57.612Z,100999.00
2022-11-27T15:39:37.107Z,100990.44
2022-11-27T15:42:08.396Z,100978.06
2022-11-27T15:44:34.925Z,100985.63
2022-11-27T15:47:03.513Z,100981.31
2022-11-27T15:49:30.297Z,100990.59
2022-11-27T15:51:57.840Z,100984.44
2022-11-27T15:54:25.313Z,100975.72
2022-11-27T15:56:51.973Z,100968.78
2022-11-27T15:59:20.555Z,100974.47
2022-11-27T16:01:47.272Z,100959.38
2022-11-27T16:04:13.659Z,100955.09
2022-11-27T16:06:42.686Z,100943.72
2022-11-27T16:09:09.064Z,100955.53
2022-11-27T16:11:35.464Z,100948.25
2022-11-27T16:14:04.431Z,100940.59
2022-11-27T16:16:33.252Z,100936.47
2022-11-27T16:19:00.753Z,100945.72
2022-11-27T16:21:30.766Z,100933.34
2022-11-27T16:24:04.066Z,100939.16
2022-11-27T16:26:31.271Z,100927.66
2022-11-27T16:28:58.418Z,100919.66
2022-11-27T16:31:26.453Z,100914.41
2022-11-27T16:33:53.208Z,100907.59
2022-11-27T16:36:25.708Z,100901.63
2022-11-27T16:38:54.404Z,100900.19
2022-11-27T16:41:21.361Z,100905.84
2022-11-27T16:43:50.385Z,100902.44
2022-11-27T16:46:23.034Z,100901.75
2022-11-27T16:48:49.905Z,100898.31
2022-11-27T16:51:19.786Z,100894.06
2022-11-27T16:53:51.189Z,100895.75
2022-11-27T16:56:19.659Z,100901.31
2022-11-27T16:58:47.220Z,100896.75
2022-11-27T17:01:16.857Z,100895.91
2022-11-27T17:03:43.377Z,100878.13
2022-11-27T17:06:12.281Z,100878.38
2022-11-27T17:08:39.400Z,100881.09
2022-11-27T17:11:08.845Z,100882.13
2022-11-27T17:13:35.319Z,100873.16
2022-11-27T17:16:01.763Z,100878.56
2022-11-27T17:18:28.159Z,100873.28
2022-11-27T17:21:03.820Z,100863.31
2022-11-27T17:23:30.508Z,100866.16
2022-11-27T17:25:56.946Z,100847.22
2022-11-27T17:28:24.478Z,100848.25
2022-11-27T17:30:50.922Z,100845.38
2022-11-27T17:33:17.275Z,100844.69
2022-11-27T17:35:43.764Z,100833.03
2022-11-27T17:38:10.214Z,100835.84
2022-11-27T17:40:41.235Z,100825.22
2022-11-27T17:43:10.242Z,100823.63
2022-11-27T17:45:40.702Z,100815.50
2022-11-27T17:48:07.716Z,100819.09
2022-11-27T17:50:36.507Z,100823.06
2022-11-27T17:53:02.950Z,100834.75
2022-11-27T17:55:29.322Z,100842.00
2022-11-27T17:57:58.994Z,100841.13
2022-11-27T18:00:30.382Z,100842.84
2022-11-27T18:02:56.828Z,100833.88
2022-11-27T18:05:25.767Z,100822.22
2022-11-27T18:07:53.253Z,100807.84
2022-11-27T18:10:20.322Z,100801.03
2022-11-27T18:12:46.902Z,100802.00
2022-11-27T18:15:14.121Z,100799.72
2022-11-27T18:17:40.637Z,100797.19
2022-11-27T18:20:07.669Z,100795.59
2022-11-27T18:22:36.288Z,100778.69
2022-11-27T18:25:03.097Z,100776.13
2022-11-27T18:27:30.005Z,100759.91
2022-11-27T18:29:56.357Z,100759.06
2022-11-27T18:32:22.951Z,100758.22
2022-11-27T18:34:52.982Z,100743.41
2022-11-27T18:37:19.538Z,100742.25
2022-11-27T18:39:47.338Z,100736.56
2022-11-27T18:42:16.466Z,100727.44
2022-11-27T18:44:45.056Z,100715.47
2022-11-27T18:47:13.578Z,100709.22
2022-11-27T18:49:40.821Z,100731.88
2022-11-27T18:52:10.575Z,100732.56
2022-11-27T18:54:37.354Z,100723.75
2022-11-27T18:57:06.947Z,100720.34
2022-11-27T18:59:33.896Z,100713.63
2022-11-27T19:02:03.001Z,100717.19
2022-11-27T19:04:29.553Z,100716.16
2022-11-27T19:06:58.636Z,100716.88
2022-11-27T19:09:25.206Z,100709.78
2022-11-27T19:11:54.320Z,100702.94
2022-11-27T19:14:20.734Z,100711.63
2022-11-27T19:16:47.228Z,100711.78
2022-11-27T19:22:06.169Z,100701.97
2022-11-27T19:24:32.682Z,100709.78
2022-11-27T19:26:59.049Z,100697.25
2022-11-27T19:29:28.037Z,100693.53
2022-11-27T19:32:01.046Z,100679.16
2022-11-27T19:34:27.699Z,100673.03
2022-11-27T19:36:54.195Z,100671.66
2022-11-27T19:39:20.669Z,100669.41
2022-11-27T19:41:49.467Z,100678.19
2022-11-27T19:44:17.457Z,100679.25
2022-11-27T19:46:46.729Z,100683.69
2022-11-27T19:49:17.857Z,100674.31
2022-11-27T19:51:45.409Z,100676.56
2022-11-27T19:54:16.609Z,100676.78
2022-11-27T19:56:43.208Z,100672.78
2022-11-27T19:59:11.030Z,100670.47
2022-11-27T20:01:40.393Z,100658.25
2022-11-27T20:04:09.385Z,100668.69
2022-11-27T20:06:35.867Z,100674.00
2022-11-27T20:09:04.579Z,100669.78
2022-11-27T20:11:34.950Z,100660.06
2022-11-27T20:14:03.987Z,100670.66
2022-11-27T20:16:30.769Z,100651.03
2022-11-27T20:18:57.344Z,100645.22
2022-11-27T20:21:25.698Z,100634.38
2022-11-27T20:23:53.498Z,100658.22
2022-11-27T20:26:22.305Z,100650.81
2022-11-27T20:28:53.014Z,100654.38
2022-11-27T20:31:24.192Z,100647.88
2022-11-27T20:33:56.441Z,100651.13
2022-11-27T20:36:27.030Z,100646.91
2022-11-27T20:38:55.701Z,100643.81
2022-11-27T20:41:22.458Z,100658.09
2022-11-27T20:43:53.134Z,100656.00
2022-11-27T20:46:19.550Z,100662.97
2022-11-27T20:48:47.612Z,100628.97
2022-11-27T20:51:16.927Z,100627.31
2022-11-27T20:53:45.304Z,100643.09
2022-11-27T20:56:16.435Z,100673.63
2022-11-27T20:58:44.167Z,100663.88
2022-11-27T21:01:23.435Z,100645.53
2022-11-27T21:03:52.004Z,100651.28
2022-11-27T21:06:22.535Z,100659.41
2022-11-27T21:08:49.887Z,100653.97
2022-11-27T21:11:27.816Z,100656.69
2022-11-27T21:13:59.098Z,100649.72
2022-11-27T21:16:28.309Z,100659.31
2022-11-27T21:19:00.333Z,100635.94
2022-11-27T21:21:26.999Z,100628.00
2022-11-27T21:23:54.605Z,100629.38
2022-11-27T21:26:21.934Z,100641.75
2022-11-27T21:28:53.178Z,100633.09
2022-11-27T21:31:24.837Z,100622.78
2022-11-27T21:33:55.669Z,100595.69
2022-11-27T21:36:24.076Z,100606.00
2022-11-27T21:38:50.523Z,100598.88
2022-11-27T21:41:20.023Z,100600.72
2022-11-27T21:43:48.371Z,100610.56
2022-11-27T21:46:17.858Z,100599.34
2022-11-27T21:48:46.318Z,100600.38
2022-11-27T21:51:15.276Z,100589.53
2022-11-27T21:53:45.832Z,100577.31
2022-11-27T21:56:15.818Z,100586.13
2022-11-27T21:58:45.368Z,100593.25
2022-11-27T22:01:19.694Z,100571.91
2022-11-27T22:03:51.359Z,100577.00
2022-11-27T22:06:21.940Z,100558.19
2022-11-27T22:08:49.531Z,100560.06
2022-11-27T22:11:21.563Z,100553.63
2022-11-27T22:13:48.075Z,100547.22
2022-11-27T22:16:20.603Z,100573.59
2022-11-27T22:18:47.998Z,100556.50
2022-11-27T22:21:18.006Z,100554.78
2022-11-27T22:23:44.865Z,100561.06
2022-11-27T22:26:19.496Z,100556.50
2022-11-27T22:28:49.038Z,100551.09
2022-11-27T22:31:21.721Z,100553.09
2022-11-27T22:33:49.465Z,100539.09
2022-11-27T22:36:22.206Z,100525.16
2022-11-27T22:38:50.650Z,100515.50
2022-11-27T22:41:17.978Z,100521.78
2022-11-27T22:43:47.170Z,100518.34
2022-11-27T22:46:20.595Z,100519.38
2022-11-27T22:48:47.401Z,100509.22
2022-11-27T22:51:14.006Z,100512.13
2022-11-27T22:53:40.541Z,100498.03
2022-11-27T22:56:10.041Z,100503.28
2022-11-27T22:58:41.573Z,100500.75
2022-11-27T23:01:23.109Z,100495.16
2022-11-27T23:03:53.117Z,100495.88
2022-11-27T23:06:22.575Z,100487.22
2022-11-27T23:08:49.864Z,100490.91
2022-11-27T23:11:26.218Z,100499.03
2022-11-27T23:13:54.516Z,100518.84
2022-11-27T23:16:26.465Z,100495.41
2022-11-27T23:18:53.177Z,100487.41
2022-11-27T23:21:23.035Z,100498.69
2022-11-27T23:23:51.909Z,100499.53
2022-11-27T23:26:25.054Z,100485.22
2022-11-27T23:28:55.166Z,100501.22
2022-11-27T23:31:30.375Z,100494.13
2022-11-27T23:33:58.836Z,100480.69
2022-11-27T23:36:25.263Z,100476.75
2022-11-27T23:38:51.806Z,100476.00
2022-11-27T23:41:21.646Z,100481.59
2022-11-27T23:43:48.794Z,100467.81
2022-11-27T23:46:17.926Z,100478.63
2022-11-27T23:48:45.261Z,100487.06
2022-11-27T23:51:14.541Z,100497.22
2022-11-27T23:53:43.956Z,100502.22
2022-11-27T23:56:16.460Z,100481.22
2022-11-27T23:58:47.070Z,100476.13
